createdAt,value
2019-04-21T00:08:12.736Z,65.40
2019-04-21T00:14:57.938Z,67.20
2019-04-21T00:20:05.582Z,66.40
2019-04-21T00:25:32.129Z,66.60
2019-04-21T00:31:08.392Z,66.60
2019-04-21T00:40:32.038Z,66.30
2019-04-21T00:45:38.785Z,67.40
2019-04-21T00:57:11.498Z,66.90
2019-04-21T01:03:43.677Z,66.90
2019-04-21T01:12:03.760Z,68.20
2019-04-21T01:17:21.911Z,67.00
2019-04-21T01:22:00.989Z,66.90
2019-04-21T01:26:54.352Z,68.70
2019-04-21T01:32:23.713Z,69.90
2019-04-21T01:37:57.795Z,70.50
2019-04-21T01:43:25.038Z,70.50
2019-04-21T01:52:55.907Z,69.40
2019-04-21T02:10:11.463Z,71.00
2019-04-21T02:15:43.575Z,71.70
2019-04-21T02:40:27.944Z,73.00
2019-04-21T03:03:31.693Z,74.90
2019-04-21T03:14:37.382Z,74.40
2019-04-21T03:46:12.446Z,75.50
2019-04-21T03:51:50.572Z,76.80
2019-04-21T03:58:32.206Z,77.30
2019-04-21T04:04:17.534Z,77.00
2019-04-21T04:23:03.321Z,76.00
2019-04-21T04:39:50.167Z,75.50
2019-04-21T04:45:30.742Z,75.40
2019-04-21T04:51:28.355Z,76.50
2019-04-21T04:56:54.287Z,75.50
2019-04-21T05:08:07.689Z,75.10
2019-04-21T05:13:51.673Z,74.50
2019-04-21T05:20:15.876Z,74.20
2019-04-21T05:25:30.759Z,71.30
2019-04-21T05:32:09.242Z,68.80
2019-04-21T05:37:43.433Z,69.60
2019-04-21T05:43:18.688Z,69.40
2019-04-21T05:48:51.872Z,70.60
2019-04-21T05:54:53.001Z,71.40
2019-04-21T06:08:38.657Z,69.20
2019-04-21T06:20:01.892Z,63.60
2019-04-21T06:38:03.672Z,59.20
2019-04-21T06:43:40.385Z,57.40
2019-04-21T06:49:00.320Z,56.60
2019-04-21T06:54:44.355Z,57.70
2019-04-21T07:02:28.694Z,57.40
2019-04-21T07:07:26.138Z,53.70
2019-04-21T07:13:03.271Z,51.60
2019-04-21T07:18:41.602Z,49.00
2019-04-21T07:24:21.832Z,48.20
2019-04-21T07:29:55.001Z,47.70
2019-04-21T07:35:36.004Z,47.30
2019-04-21T07:40:58.787Z,47.50
2019-04-21T07:46:36.620Z,46.20
2019-04-21T07:56:11.946Z,45.40
2019-04-21T08:06:55.447Z,43.20
2019-04-21T08:12:47.744Z,43.60
2019-04-21T08:18:07.486Z,38.50
2019-04-21T08:24:36.329Z,40.20
2019-04-21T08:36:11.324Z,38.50
2019-04-21T08:41:42.370Z,38.30
2019-04-21T08:47:12.366Z,39.40
2019-04-21T08:53:49.070Z,36.10
2019-04-21T08:59:31.175Z,31.20
2019-04-21T09:05:32.607Z,31.00
2019-04-21T09:12:58.777Z,31.30
2019-04-21T09:18:17.096Z,27.70
2019-04-21T09:25:51.312Z,28.00
2019-04-21T09:30:10.903Z,26.30
2019-04-21T09:34:43.465Z,27.10
2019-04-21T09:39:23.747Z,27.90
2019-04-21T09:43:53.724Z,26.60
2019-04-21T09:48:25.857Z,25.50
2019-04-21T09:53:24.439Z,26.10
2019-04-21T09:58:08.992Z,25.00
2019-04-21T10:03:07.906Z,24.10
2019-04-21T10:07:44.184Z,25.60
2019-04-21T10:11:50.389Z,23.50
2019-04-21T10:16:34.169Z,23.80
2019-04-21T10:21:10.868Z,25.90
2019-04-21T11:04:38.357Z,22.50
2019-04-21T11:48:04.112Z,20.80
2019-04-21T11:52:29.169Z,19.80
2019-04-21T11:56:46.330Z,18.60
2019-04-21T12:01:09.676Z,21.00
2019-04-21T12:44:18.379Z,20.10
2019-04-21T13:27:40.861Z,19.40
2019-04-21T13:31:44.554Z,19.80
2019-04-21T13:35:59.280Z,19.40
2019-04-21T13:41:17.828Z,19.60
2019-04-21T14:24:59.753Z,20.70
2019-04-21T14:29:15.501Z,19.20
2019-04-21T14:33:29.857Z,19.40
2019-04-21T14:37:38.359Z,19.80
2019-04-21T14:46:17.221Z,18.20
2019-04-21T15:23:14.497Z,20.30
2019-04-21T15:27:16.855Z,22.30
2019-04-21T15:35:19.512Z,19.50
2019-04-21T15:41:18.595Z,20.90
2019-04-21T15:49:17.522Z,21.30
2019-04-21T15:53:21.624Z,20.10
2019-04-21T15:57:56.463Z,21.20
2019-04-21T16:04:18.878Z,21.10
2019-04-21T16:08:24.923Z,20.70
2019-04-21T16:16:28.309Z,21.40
2019-04-21T16:20:35.494Z,20.00
2019-04-21T16:24:50.556Z,21.10
2019-04-21T16:29:02.766Z,23.60
2019-04-21T16:33:12.284Z,24.30
2019-04-21T16:37:23.531Z,26.20
2019-04-21T16:41:36.114Z,26.20
2019-04-21T16:45:44.457Z,25.60
2019-04-21T16:49:53.908Z,26.10
2019-04-21T16:54:08.337Z,27.50
2019-04-21T17:10:20.299Z,28.00
2019-04-21T17:54:02.425Z,28.60
2019-04-21T17:59:51.222Z,28.00
2019-04-21T18:05:19.402Z,26.60
2019-04-21T18:10:45.847Z,24.90
2019-04-21T18:55:12.902Z,28.50
2019-04-21T18:59:53.240Z,30.10
2019-04-21T19:04:00.422Z,30.00
2019-04-21T19:09:21.686Z,30.00
2019-04-21T19:24:41.208Z,32.20
2019-04-21T19:30:22.178Z,38.30
2019-04-21T21:22:45.448Z,49.40
2019-04-21T21:28:03.438Z,51.50
2019-04-21T21:39:42.396Z,52.60
2019-04-21T21:44:22.813Z,55.00
2019-04-21T21:49:26.319Z,53.70
2019-04-21T22:14:03.170Z,56.20
2019-04-21T22:30:45.649Z,54.60
2019-04-21T22:35:09.161Z,51.30
2019-04-21T22:43:42.095Z,52.70
2019-04-21T22:47:52.122Z,53.60
2019-04-21T22:52:29.538Z,52.20
2019-04-21T22:57:36.501Z,52.00
2019-04-21T23:03:17.409Z,52.60
2019-04-21T23:07:58.053Z,54.50
2019-04-21T23:12:36.670Z,56.80
2019-04-21T23:23:44.276Z,58.10
2019-04-21T23:29:15.637Z,58.10
2019-04-21T23:34:35.788Z,58.60
2019-04-21T23:41:02.400Z,59.60
2019-04-21T23:53:03.618Z,59.00
2019-04-21T23:57:30.297Z,58.90
